Terminal Aerodrome Forecast
Issued by NWS

Home | Current Version | Previous Version | Graphics & Text | Print | Product List | Glossary On
Versions: 1 2 3 4 5 6 7 8 9 10 11 12 13 14 15 16
000
FTUS43 KICT 220520
TAFSLN
TAF
KSLN 220520Z 2206/2306 34007KT 6SM -SHRA OVC050
      TEMPO 2206/2208 4SM -SHRA BR SCT007 OVC035
     FM220800 34006KT P6SM VCSH OVC050
     FM221000 34008KT P6SM OVC060
     FM222000 03008KT P6SM OVC050
     FM230400 02004KT P6SM BKN150=

USA.gov is the U.S. government's official web portal to all federal, state and local government web resources and services.